Time;durP1;ratioP1;P1;durP2;ratioP2;P2;SDS_P1;SDS_P2;PMS_P1;PMS_P2;Temp;Humidity;BMP_temperature;BMP_pressure;BME280_temperature;BME280_humidity;BME280_pressure;Samples;Min_cycle;Max_cycle;Signal;HPM_P1;HPM_P2
2022/08/30 00:02:05;;;;;;;12.98;7.47;;;;;;;;;;5028453;28;20412;-68
2022/08/30 00:04:31;;;;;;;10.50;8.05;;;;;;;;;;5026604;28;20046;-68
2022/08/30 00:06:56;;;;;;;10.32;8.32;;;;;;;;;;5011516;28;20061;-68
2022/08/30 00:09:21;;;;;;;10.23;7.80;;;;;;;;;;5012874;28;20041;-70
2022/08/30 00:11:48;;;;;;;10.30;7.90;;;;;;;;;;5012160;28;20768;-68
2022/08/30 00:14:14;;;;;;;12.75;8.15;;;;;;;;;;5012242;28;20127;-67
2022/08/30 00:16:39;;;;;;;9.88;7.88;;;;;;;;;;5011256;28;20494;-68
2022/08/30 00:19:05;;;;;;;9.98;8.02;;;;;;;;;;5011666;28;20054;-69
2022/08/30 00:21:31;;;;;;;12.70;8.48;;;;;;;;;;5011546;28;20049;-69
2022/08/30 00:23:57;;;;;;;12.98;8.77;;;;;;;;;;5012026;28;20064;-68
2022/08/30 00:26:22;;;;;;;10.40;8.25;;;;;;;;;;5011080;28;20409;-68
2022/08/30 00:28:47;;;;;;;12.18;8.60;;;;;;;;;;5010898;28;20073;-68
2022/08/30 00:31:14;;;;;;;11.25;8.63;;;;;;;;;;5020933;28;20049;-68
2022/08/30 00:33:39;;;;;;;10.00;8.15;;;;;;;;;;5031440;28;20047;-69
2022/08/30 00:36:05;;;;;;;12.52;8.75;;;;;;;;;;5031524;28;20042;-69
2022/08/30 00:38:30;;;;;;;11.02;8.40;;;;;;;;;;5018944;28;20050;-68
2022/08/30 00:40:58;;;;;;;14.88;9.52;;;;;;;;;;5010701;28;20042;-69
2022/08/30 00:43:27;;;;;;;11.55;9.15;;;;;;;;;;5011493;28;20038;-69
2022/08/30 00:45:53;;;;;;;12.93;8.48;;;;;;;;;;5018312;28;20049;-68
2022/08/30 00:48:18;;;;;;;12.43;9.43;;;;;;;;;;5028877;28;20108;-68
2022/08/30 00:50:48;;;;;;;15.50;10.60;;;;;;;;;;5010354;28;20517;-69
2022/08/30 00:53:23;;;;;;;11.50;9.05;;;;;;;;;;5011629;28;20045;-67
2022/08/30 00:55:49;;;;;;;12.93;9.60;;;;;;;;;;5011426;28;20058;-68
2022/08/30 00:58:21;;;;;;;14.40;9.73;;;;;;;;;;5011328;28;20057;-69
2022/08/30 01:00:48;;;;;;;;;;;;;;;;;;5011519;28;20034;-68
2022/08/30 01:03:14;;;;;;;11.57;9.23;;;;;;;;;;5011061;28;20428;-68
2022/08/30 01:05:40;;;;;;;11.88;9.10;;;;;;;;;;5011101;28;20078;-68
2022/08/30 01:08:06;;;;;;;12.48;9.07;;;;;;;;;;5011071;28;20095;-69
2022/08/30 01:10:33;;;;;;;11.18;8.93;;;;;;;;;;5009944;28;20057;-68
2022/08/30 01:12:59;;;;;;;13.27;9.25;;;;;;;;;;5010203;28;20061;-69
2022/08/30 01:15:25;;;;;;;13.05;9.23;;;;;;;;;;5013778;28;20052;-69
2022/08/30 01:17:50;;;;;;;17.67;9.75;;;;;;;;;;5030624;28;20396;-68
2022/08/30 01:20:25;;;;;;;13.48;9.77;;;;;;;;;;5030471;28;20136;-68
2022/08/30 01:22:51;;;;;;;12.93;9.57;;;;;;;;;;5014306;28;20038;-68
2022/08/30 01:25:22;;;;;;;16.52;10.27;;;;;;;;;;5010805;28;20438;-68
2022/08/30 01:27:53;;;;;;;14.95;11.05;;;;;;;;;;5002132;28;20807;-67
2022/08/30 01:30:19;;;;;;;14.02;11.02;;;;;;;;;;5011273;28;20092;-67
2022/08/30 01:32:46;;;;;;;17.40;10.73;;;;;;;;;;5009233;28;20046;-67
2022/08/30 01:35:16;;;;;;;15.23;10.90;;;;;;;;;;5010871;28;20383;-68
2022/08/30 01:37:43;;;;;;;15.65;10.43;;;;;;;;;;5010469;28;20967;-67
2022/08/30 01:40:10;;;;;;;17.02;10.75;;;;;;;;;;5009724;28;20069;-68
2022/08/30 01:42:36;;;;;;;18.50;10.75;;;;;;;;;;5010311;28;20130;-68
2022/08/30 01:45:02;;;;;;;19.90;11.30;;;;;;;;;;5008994;28;20121;-66
2022/08/30 01:47:28;;;;;;;15.73;10.82;;;;;;;;;;5011037;28;20053;-67
2022/08/30 01:49:54;;;;;;;17.17;10.98;;;;;;;;;;5010412;28;20038;-67
2022/08/30 01:52:19;;;;;;;17.73;11.00;;;;;;;;;;5008203;28;20116;-66
2022/08/30 01:54:46;;;;;;;18.88;11.48;;;;;;;;;;5008966;28;20128;-68
2022/08/30 01:57:16;;;;;;;15.27;11.15;;;;;;;;;;5010249;28;20091;-67
2022/08/30 01:59:46;;;;;;;16.23;12.30;;;;;;;;;;5009248;28;20453;-66
2022/08/30 02:02:21;;;;;;;20.33;13.43;;;;;;;;;;5027434;28;20505;-67
2022/08/30 02:04:47;;;;;;;22.85;13.85;;;;;;;;;;5029552;28;20053;-67
2022/08/30 02:07:13;;;;;;;22.67;14.18;;;;;;;;;;5011176;28;20860;-68
2022/08/30 02:09:39;;;;;;;19.15;13.68;;;;;;;;;;5010157;28;20045;-67
2022/08/30 02:12:06;;;;;;;21.83;15.07;;;;;;;;;;5009485;28;20134;-67
2022/08/30 02:14:36;;;;;;;22.27;13.60;;;;;;;;;;5008787;28;20104;-67
2022/08/30 02:17:02;;;;;;;19.45;12.50;;;;;;;;;;5016015;28;20049;-67
2022/08/30 02:19:29;;;;;;;17.42;11.63;;;;;;;;;;5009832;28;20125;-68
2022/08/30 02:21:55;;;;;;;16.77;10.88;;;;;;;;;;5009647;28;20034;-67
2022/08/30 02:24:20;;;;;;;15.07;11.00;;;;;;;;;;5009911;28;20037;-68
2022/08/30 02:26:46;;;;;;;13.75;10.55;;;;;;;;;;5009220;28;20054;-68
2022/08/30 02:29:11;;;;;;;15.07;10.07;;;;;;;;;;5009113;28;20128;-68
2022/08/30 02:31:37;;;;;;;15.30;11.18;;;;;;;;;;5021996;28;20179;-69
2022/08/30 02:34:03;;;;;;;17.85;11.65;;;;;;;;;;5029763;28;20060;-68
2022/08/30 02:36:28;;;;;;;19.50;11.55;;;;;;;;;;5029520;28;20055;-68
2022/08/30 02:38:54;;;;;;;14.30;11.43;;;;;;;;;;5021633;28;20045;-68
2022/08/30 02:41:22;;;;;;;15.43;11.27;;;;;;;;;;5009225;28;20046;-69
2022/08/30 02:43:47;;;;;;;19.02;12.73;;;;;;;;;;5009889;28;20056;-68
2022/08/30 02:46:13;;;;;;;18.25;12.65;;;;;;;;;;5019213;28;20124;-68
2022/08/30 02:48:38;;;;;;;16.38;11.85;;;;;;;;;;5029603;28;20124;-68
2022/08/30 02:51:08;;;;;;;21.40;12.23;;;;;;;;;;5011278;28;20124;-68
2022/08/30 02:53:34;;;;;;;15.93;11.48;;;;;;;;;;5011387;28;20053;-67
2022/08/30 02:55:59;;;;;;;21.52;11.98;;;;;;;;;;5013484;28;20037;-68
2022/08/30 02:58:25;;;;;;;16.05;12.25;;;;;;;;;;5013405;28;20042;-67
2022/08/30 03:00:51;;;;;;;19.85;12.32;;;;;;;;;;5012214;28;20085;-67
2022/08/30 03:03:16;;;;;;;17.65;12.73;;;;;;;;;;5012127;28;20053;-67
2022/08/30 03:05:42;;;;;;;17.83;11.48;;;;;;;;;;5013524;28;20049;-67
2022/08/30 03:08:08;;;;;;;16.52;12.10;;;;;;;;;;5013222;28;20125;-67
2022/08/30 03:10:34;;;;;;;16.15;12.45;;;;;;;;;;5013080;28;20050;-67
2022/08/30 03:12:59;;;;;;;24.50;12.73;;;;;;;;;;5011657;28;20041;-67
2022/08/30 03:15:25;;;;;;;19.83;12.45;;;;;;;;;;5016072;28;20414;-68
2022/08/30 03:17:52;;;;;;;18.25;11.48;;;;;;;;;;5031715;28;20046;-68
2022/08/30 03:20:18;;;;;;;20.55;11.32;;;;;;;;;;5032586;28;20056;-68
2022/08/30 03:22:44;;;;;;;21.10;12.07;;;;;;;;;;5026565;28;20056;-67
2022/08/30 03:25:10;;;;;;;21.83;11.98;;;;;;;;;;5013032;28;20046;-67
2022/08/30 03:27:35;;;;;;;20.80;10.90;;;;;;;;;;5003511;28;20069;-66
2022/08/30 03:30:01;;;;;;;14.73;11.43;;;;;;;;;;5011773;28;20045;-67
2022/08/30 03:32:26;;;;;;;19.23;13.30;;;;;;;;;;5012549;28;20076;-68
2022/08/30 03:34:52;;;;;;;18.90;11.95;;;;;;;;;;5011543;28;20525;-67
2022/08/30 03:37:18;;;;;;;19.98;11.82;;;;;;;;;;5004608;28;20133;-68
2022/08/30 03:39:44;;;;;;;14.85;11.15;;;;;;;;;;5008425;28;20046;-68
2022/08/30 03:42:10;;;;;;;17.25;11.93;;;;;;;;;;5012384;28;20516;-68
2022/08/30 03:44:36;;;;;;;19.33;11.38;;;;;;;;;;5011968;28;20049;-68
2022/08/30 03:47:02;;;;;;;22.08;12.48;;;;;;;;;;5013984;28;20054;-69
2022/08/30 03:49:28;;;;;;;20.95;13.73;;;;;;;;;;5012664;28;20061;-68
2022/08/30 03:51:53;;;;;;;21.73;13.73;;;;;;;;;;5012251;28;20049;-68
2022/08/30 03:54:18;;;;;;;19.13;14.32;;;;;;;;;;5012577;28;20046;-68
2022/08/30 03:56:44;;;;;;;23.13;13.68;;;;;;;;;;5009592;28;20049;-68
2022/08/30 03:59:09;;;;;;;17.67;13.23;;;;;;;;;;5012607;28;20046;-68
2022/08/30 04:01:35;;;;;;;17.85;13.30;;;;;;;;;;5024349;28;20929;-68
2022/08/30 04:04:00;;;;;;;20.40;14.02;;;;;;;;;;5031795;28;20502;-68
2022/08/30 04:08:54;;;;;;;19.05;13.45;;;;;;;;;;4990843;28;20413;-67
2022/08/30 04:11:20;;;;;;;26.40;14.75;;;;;;;;;;5011747;28;20046;-67
2022/08/30 04:13:48;;;;;;;24.35;16.55;;;;;;;;;;5012498;28;20046;-67
2022/08/30 04:16:13;;;;;;;21.48;15.10;;;;;;;;;;5012125;28;20046;-67
2022/08/30 04:18:39;;;;;;;19.73;14.07;;;;;;;;;;5008931;28;20061;-67
2022/08/30 04:21:06;;;;;;;17.98;13.27;;;;;;;;;;5010901;28;20045;-66
2022/08/30 04:23:31;;;;;;;19.83;13.90;;;;;;;;;;4987937;28;20050;-65
2022/08/30 04:25:57;;;;;;;24.27;15.00;;;;;;;;;;4991741;28;20454;-66
2022/08/30 04:28:23;;;;;;;22.40;14.93;;;;;;;;;;4988547;28;20066;-65
2022/08/30 04:30:48;;;;;;;24.77;14.38;;;;;;;;;;4994035;28;20048;-66
2022/08/30 04:33:15;;;;;;;24.00;13.65;;;;;;;;;;4981179;28;20141;-66
2022/08/30 04:35:45;;;;;;;22.27;14.52;;;;;;;;;;4984461;28;20105;-65
2022/08/30 04:38:12;;;;;;;21.25;13.05;;;;;;;;;;4982221;28;20762;-66
2022/08/30 04:40:41;;;;;;;17.60;13.38;;;;;;;;;;4986986;28;20129;-66
2022/08/30 04:43:06;;;;;;;17.08;13.23;;;;;;;;;;4986918;28;20097;-65
2022/08/30 04:45:31;;;;;;;19.50;13.98;;;;;;;;;;4975394;28;20443;-66
2022/08/30 04:47:57;;;;;;;22.58;14.50;;;;;;;;;;4972670;28;20051;-66
2022/08/30 04:50:22;;;;;;;23.05;14.52;;;;;;;;;;4973722;28;20055;-66
2022/08/30 04:52:48;;;;;;;20.58;15.43;;;;;;;;;;5010663;28;20113;-66
2022/08/30 04:55:14;;;;;;;22.60;15.35;;;;;;;;;;4992988;28;20130;-65
2022/08/30 04:57:40;;;;;;;21.25;14.98;;;;;;;;;;4981865;28;20046;-65
2022/08/30 05:00:09;;;;;;;23.15;15.73;;;;;;;;;;4980352;28;20042;-66
2022/08/30 05:02:35;;;;;;;23.75;15.20;;;;;;;;;;4998373;28;20042;-65
2022/08/30 05:07:46;;;;;;;21.42;14.48;;;;;;;;;;5017982;28;20054;-66
2022/08/30 05:10:11;;;;;;;22.15;15.25;;;;;;;;;;4996090;28;20106;-66
2022/08/30 05:12:49;;;;;;;22.85;14.57;;;;;;;;;;4984351;28;20046;-66
2022/08/30 05:15:14;;;;;;;20.20;14.98;;;;;;;;;;5008772;28;20044;-67
2022/08/30 05:17:40;;;;;;;21.08;14.48;;;;;;;;;;5047371;23;20490;-66
2022/08/30 05:20:08;;;;;;;16.73;13.13;;;;;;;;;;5069687;28;20714;-67
2022/08/30 05:22:35;;;;;;;20.77;12.70;;;;;;;;;;5068941;28;20115;-66
2022/08/30 05:25:01;;;;;;;18.27;12.15;;;;;;;;;;5069285;28;20091;-67
2022/08/30 05:27:26;;;;;;;12.68;10.75;;;;;;;;;;5070303;28;20445;-67
2022/08/30 05:29:51;;;;;;;14.13;11.52;;;;;;;;;;5070103;28;20048;-66
2022/08/30 05:32:17;;;;;;;14.63;10.30;;;;;;;;;;5051850;28;20094;-67
2022/08/30 05:34:43;;;;;;;14.75;10.18;;;;;;;;;;5053674;28;20396;-67
2022/08/30 05:37:09;;;;;;;13.93;9.52;;;;;;;;;;5069934;28;20044;-67
2022/08/30 05:39:34;;;;;;;12.43;9.75;;;;;;;;;;5070253;28;20059;-67
2022/08/30 05:41:59;;;;;;;13.93;9.50;;;;;;;;;;5069935;28;20040;-67
2022/08/30 05:44:25;;;;;;;14.15;10.05;;;;;;;;;;5070208;28;20048;-67
2022/08/30 05:46:50;;;;;;;12.30;9.52;;;;;;;;;;5067833;28;20045;-67
2022/08/30 05:49:16;;;;;;;15.85;8.98;;;;;;;;;;5069983;28;20127;-67
2022/08/30 05:51:41;;;;;;;10.20;8.75;;;;;;;;;;5069649;28;20052;-67
2022/08/30 05:54:07;;;;;;;12.52;8.48;;;;;;;;;;5070182;28;20091;-67
2022/08/30 05:56:35;;;;;;;14.13;8.70;;;;;;;;;;5068815;28;20044;-66
2022/08/30 05:59:03;;;;;;;11.80;10.00;;;;;;;;;;5069349;28;20055;-67
2022/08/30 06:01:38;;;;;;;16.27;9.48;;;;;;;;;;5069580;28;20540;-67
2022/08/30 06:04:05;;;;;;;10.55;8.98;;;;;;;;;;5069769;28;20036;-67
2022/08/30 06:06:33;;;;;;;11.43;8.60;;;;;;;;;;5069699;28;20041;-67
2022/08/30 06:08:59;;;;;;;10.82;8.57;;;;;;;;;;5066391;28;20101;-67
2022/08/30 06:11:25;;;;;;;14.02;8.95;;;;;;;;;;5067686;28;20044;-67
2022/08/30 06:13:52;;;;;;;17.25;9.77;;;;;;;;;;5067871;28;20049;-67
2022/08/30 06:16:21;;;;;;;10.77;9.27;;;;;;;;;;5068983;28;20519;-67
2022/08/30 06:18:47;;;;;;;12.27;9.40;;;;;;;;;;5067724;28;20120;-67
2022/08/30 06:21:24;;;;;;;11.13;8.93;;;;;;;;;;5067657;28;20139;-66
2022/08/30 06:23:50;;;;;;;10.70;8.80;;;;;;;;;;5069724;28;20496;-67
2022/08/30 06:26:16;;;;;;;16.17;7.63;;;;;;;;;;5069517;28;20121;-67
2022/08/30 06:28:41;;;;;;;10.30;7.97;;;;;;;;;;5069249;28;20040;-67
2022/08/30 06:31:09;;;;;;;10.55;8.13;;;;;;;;;;5067314;28;20052;-67
2022/08/30 06:33:35;;;;;;;10.38;8.43;;;;;;;;;;5069062;28;20040;-67
2022/08/30 06:36:05;;;;;;;11.40;8.35;;;;;;;;;;5069333;28;20040;-67
2022/08/30 06:38:30;;;;;;;11.35;8.48;;;;;;;;;;5069485;28;20056;-67
2022/08/30 06:40:56;;;;;;;10.10;7.97;;;;;;;;;;5067444;28;20045;-67
2022/08/30 06:43:21;;;;;;;11.98;7.50;;;;;;;;;;5069119;28;20137;-67
2022/08/30 06:45:46;;;;;;;8.88;7.53;;;;;;;;;;5069138;28;20028;-67
2022/08/30 06:48:12;;;;;;;8.40;7.50;;;;;;;;;;5063168;28;20124;-67
2022/08/30 06:50:37;;;;;;;10.57;7.70;;;;;;;;;;5063963;28;20048;-67
2022/08/30 06:53:04;;;;;;;9.77;7.88;;;;;;;;;;5065860;28;20067;-68
2022/08/30 06:55:33;;;;;;;10.48;7.72;;;;;;;;;;5068366;28;20044;-68
2022/08/30 06:58:00;;;;;;;8.80;7.43;;;;;;;;;;5057781;28;20515;-68
2022/08/30 07:00:26;;;;;;;10.20;6.55;;;;;;;;;;5063245;28;20049;-67
2022/08/30 07:02:52;;;;;;;9.48;7.22;;;;;;;;;;5054827;28;20428;-68
2022/08/30 07:05:20;;;;;;;10.57;7.13;;;;;;;;;;5059462;28;20090;-67
2022/08/30 07:07:46;;;;;;;11.75;7.47;;;;;;;;;;5060216;28;20067;-67
2022/08/30 07:10:13;;;;;;;8.95;8.05;;;;;;;;;;5068679;28;20072;-68
2022/08/30 07:12:39;;;;;;;9.90;6.90;;;;;;;;;;5051855;28;20041;-67
2022/08/30 07:15:05;;;;;;;7.80;6.72;;;;;;;;;;5064944;28;20114;-68
2022/08/30 07:20:15;;;;;;;9.13;7.45;;;;;;;;;;5055480;28;20041;-67
2022/08/30 07:22:41;;;;;;;7.10;6.43;;;;;;;;;;5065076;28;20500;-68
2022/08/30 07:25:06;;;;;;;8.88;6.57;;;;;;;;;;5055453;28;20048;-68
2022/08/30 07:27:32;;;;;;;6.95;6.22;;;;;;;;;;5068308;28;20582;-68
2022/08/30 07:29:59;;;;;;;7.75;5.78;;;;;;;;;;5057699;28;20060;-68
2022/08/30 07:32:25;;;;;;;7.65;6.30;;;;;;;;;;5048180;28;20485;-67
2022/08/30 07:34:50;;;;;;;7.43;5.45;;;;;;;;;;5064580;28;20049;-68
2022/08/30 07:37:16;;;;;;;7.65;5.30;;;;;;;;;;5065762;28;20048;-68
2022/08/30 07:39:41;;;;;;;6.53;5.53;;;;;;;;;;5061995;28;20044;-67
2022/08/30 07:42:06;;;;;;;7.63;4.95;;;;;;;;;;5068810;28;20094;-68
2022/08/30 07:44:32;;;;;;;7.90;4.70;;;;;;;;;;5056486;28;20055;-68
2022/08/30 07:46:57;;;;;;;7.43;4.85;;;;;;;;;;5068027;28;20056;-67
2022/08/30 07:49:23;;;;;;;8.18;4.85;;;;;;;;;;5071513;28;20128;-68
2022/08/30 07:51:48;;;;;;;5.22;4.53;;;;;;;;;;5054848;28;20041;-68
2022/08/30 07:54:14;;;;;;;7.07;5.45;;;;;;;;;;5065544;28;20045;-67
2022/08/30 07:56:39;;;;;;;6.05;5.45;;;;;;;;;;5067834;28;20067;-68
2022/08/30 07:59:05;;;;;;;6.22;5.20;;;;;;;;;;5070053;28;20506;-68
2022/08/30 08:01:31;;;;;;;5.70;4.78;;;;;;;;;;5067617;28;20111;-67
2022/08/30 08:03:56;;;;;;;6.53;5.05;;;;;;;;;;5070175;28;20048;-68
2022/08/30 08:06:22;;;;;;;7.05;5.30;;;;;;;;;;5069713;28;20504;-67
2022/08/30 08:08:49;;;;;;;8.88;4.50;;;;;;;;;;5069031;28;20040;-68
2022/08/30 08:11:18;;;;;;;5.82;5.30;;;;;;;;;;5069885;28;20070;-68
2022/08/30 08:13:45;;;;;;;12.18;5.13;;;;;;;;;;5070599;28;20484;-68
2022/08/30 08:16:10;;;;;;;7.97;5.30;;;;;;;;;;5062750;28;20097;-67
2022/08/30 08:18:36;;;;;;;6.28;5.25;;;;;;;;;;5064824;28;20040;-69
2022/08/30 08:21:02;;;;;;;5.35;4.82;;;;;;;;;;5068982;28;20223;-70
2022/08/30 08:23:28;;;;;;;9.00;5.15;;;;;;;;;;5068050;28;20416;-68
2022/08/30 08:27:50;;;;;;;5.75;5.15;;;;;;;;;;5075674;27;20362;-68
2022/08/30 08:30:17;;;;;;;6.28;5.10;;;;;;;;;;5024081;28;20121;-70
2022/08/30 08:32:43;;;;;;;7.10;5.30;;;;;;;;;;5038082;28;20053;-69
2022/08/30 08:35:10;;;;;;;9.35;5.28;;;;;;;;;;5063697;28;20056;-69
2022/08/30 08:37:37;;;;;;;7.45;5.60;;;;;;;;;;5050037;28;20045;-67
2022/08/30 08:40:04;;;;;;;9.55;6.03;;;;;;;;;;5043022;28;20076;-67
2022/08/30 08:42:47;;;;;;;6.10;5.32;;;;;;;;;;5030566;28;20056;-67
2022/08/30 08:45:20;;;;;;;6.40;5.25;;;;;;;;;;5025985;28;20097;-66
2022/08/30 08:48:00;;;;;;;7.53;5.45;;;;;;;;;;5043765;28;20053;-68
2022/08/30 08:50:26;;;;;;;5.38;4.88;;;;;;;;;;5043910;28;20513;-69
2022/08/30 08:55:47;;;;;;;5.25;4.75;;;;;;;;;;5035219;28;20048;-68
2022/08/30 08:58:16;;;;;;;;;;;;;;;;;;5044389;28;20146;-67
2022/08/30 09:00:41;;;;;;;6.68;5.47;;;;;;;;;;5043669;28;19917;-67
2022/08/30 09:03:12;;;;;;;7.00;5.85;;;;;;;;;;5040579;28;20064;-70
2022/08/30 09:05:39;;;;;;;11.68;5.97;;;;;;;;;;5035140;28;20067;-69
2022/08/30 09:08:07;;;;;;;6.75;5.38;;;;;;;;;;5043972;28;20118;-72
2022/08/30 09:10:34;;;;;;;6.90;4.50;;;;;;;;;;5043443;28;20049;-70
2022/08/30 09:13:00;;;;;;;6.53;5.13;;;;;;;;;;5042573;28;20061;-70
2022/08/30 09:15:31;;;;;;;5.97;4.93;;;;;;;;;;5031306;28;20057;-69
2022/08/30 09:18:07;;;;;;;7.35;4.80;;;;;;;;;;5035537;28;20038;-69
2022/08/30 09:20:40;;;;;;;5.93;4.82;;;;;;;;;;5041307;28;20212;-69
2022/08/30 09:23:14;;;;;;;5.60;4.88;;;;;;;;;;5043065;28;20711;-70
2022/08/30 09:25:59;;;;;;;5.25;4.75;;;;;;;;;;5037666;28;20112;-70
2022/08/30 09:28:27;;;;;;;9.48;4.88;;;;;;;;;;5033314;28;20052;-70
2022/08/30 09:31:00;;;;;;;9.27;5.25;;;;;;;;;;5034448;28;20055;-70
2022/08/30 09:33:25;;;;;;;6.80;5.47;;;;;;;;;;5022270;28;20653;-70
2022/08/30 09:35:51;;;;;;;5.78;4.88;;;;;;;;;;5026520;28;20569;-70
2022/08/30 09:38:31;;;;;;;5.47;4.72;;;;;;;;;;5026505;28;20529;-69
2022/08/30 09:41:01;;;;;;;8.77;4.70;;;;;;;;;;5042403;28;20068;-70
2022/08/30 09:43:30;;;;;;;7.30;5.47;;;;;;;;;;5029628;28;20050;-70
2022/08/30 09:46:01;;;;;;;9.18;5.28;;;;;;;;;;5029874;28;20112;-69
2022/08/30 09:48:31;;;;;;;7.47;5.50;;;;;;;;;;5018887;28;20053;-71
2022/08/30 09:51:09;;;;;;;6.93;5.13;;;;;;;;;;5008349;28;20053;-70
2022/08/30 09:53:46;;;;;;;5.28;4.78;;;;;;;;;;5020399;28;20038;-70
2022/08/30 09:56:37;;;;;;;8.30;4.80;;;;;;;;;;5029804;28;20041;-70
2022/08/30 09:59:06;;;;;;;6.38;4.93;;;;;;;;;;5034382;28;20050;-69
2022/08/30 10:02:11;;;;;;;5.95;4.53;;;;;;;;;;5014792;28;20065;-69
2022/08/30 10:04:50;;;;;;;8.50;4.70;;;;;;;;;;5008923;28;20049;-69
2022/08/30 10:07:51;;;;;;;6.15;4.90;;;;;;;;;;5028856;28;20111;-69
2022/08/30 10:10:40;;;;;;;4.90;3.63;;;;;;;;;;5005848;28;20247;-70
2022/08/30 10:13:31;;;;;;;6.60;4.10;;;;;;;;;;5010366;28;20497;-69
2022/08/30 10:16:12;;;;;;;5.90;4.57;;;;;;;;;;5021207;28;20087;-70
2022/08/30 10:18:48;;;;;;;7.30;4.05;;;;;;;;;;5030311;28;20041;-70
2022/08/30 10:21:24;;;;;;;4.35;3.95;;;;;;;;;;5028161;28;20116;-69
2022/08/30 10:23:57;;;;;;;7.63;3.67;;;;;;;;;;5010778;28;20518;-70
2022/08/30 10:26:31;;;;;;;5.45;3.80;;;;;;;;;;5013252;28;20080;-69
2022/08/30 10:29:13;;;;;;;5.00;3.40;;;;;;;;;;5030147;28;20459;-70
2022/08/30 10:31:49;;;;;;;4.10;3.08;;;;;;;;;;5029190;28;20061;-69
2022/08/30 10:34:19;;;;;;;3.10;2.88;;;;;;;;;;5030137;28;20153;-69
2022/08/30 10:36:58;;;;;;;6.72;3.25;;;;;;;;;;5029651;28;20057;-70
2022/08/30 10:39:30;;;;;;;4.00;3.60;;;;;;;;;;5030202;28;20041;-69
2022/08/30 10:42:06;;;;;;;4.57;3.65;;;;;;;;;;5027438;28;20144;-69
2022/08/30 10:44:38;;;;;;;5.57;4.05;;;;;;;;;;5019588;28;20061;-69
2022/08/30 10:47:09;;;;;;;4.13;3.83;;;;;;;;;;5026939;28;20497;-71
2022/08/30 10:49:37;;;;;;;;;;;;;;;;;;5029470;28;20053;-69
2022/08/30 10:52:29;;;;;;;5.40;3.78;;;;;;;;;;5029979;28;19979;-70
2022/08/30 10:55:00;;;;;;;9.05;4.28;;;;;;;;;;5029783;28;20406;-70
2022/08/30 10:57:26;;;;;;;4.45;3.28;;;;;;;;;;5030013;28;20052;-70
2022/08/30 11:00:03;;;;;;;5.00;3.97;;;;;;;;;;5029902;28;20057;-69
2022/08/30 11:03:06;;;;;;;6.95;4.07;;;;;;;;;;5028606;28;20400;-69
2022/08/30 11:05:40;;;;;;;4.85;3.80;;;;;;;;;;5036494;28;20054;-69
2022/08/30 11:08:14;;;;;;;5.93;3.60;;;;;;;;;;5050851;28;20048;-69
2022/08/30 11:10:49;;;;;;;4.68;3.90;;;;;;;;;;5034413;28;20037;-71
2022/08/30 11:13:21;;;;;;;5.32;3.70;;;;;;;;;;5030250;28;20052;-71
2022/08/30 11:16:14;;;;;;;5.20;3.70;;;;;;;;;;5029585;28;20042;-71
2022/08/30 11:18:45;;;;;;;5.65;3.63;;;;;;;;;;5029845;28;20571;-70
2022/08/30 11:21:35;;;;;;;8.02;4.22;;;;;;;;;;5030330;28;20050;-71
2022/08/30 11:24:11;;;;;;;5.10;3.90;;;;;;;;;;5029844;28;20042;-70
2022/08/30 11:26:47;;;;;;;4.45;3.78;;;;;;;;;;5027506;28;20092;-70
2022/08/30 11:33:04;;;;;;;4.68;3.53;;;;;;;;;;5079792;22;20341;-69
2022/08/30 11:35:42;;;;;;;6.88;3.88;;;;;;;;;;5024683;28;20053;-69
2022/08/30 11:38:31;;;;;;;4.40;3.88;;;;;;;;;;5044301;28;20500;-68
2022/08/30 11:40:57;;;;;;;3.53;3.22;;;;;;;;;;5027272;28;20051;-66
2022/08/30 11:43:35;;;;;;;4.65;3.50;;;;;;;;;;5042424;28;20073;-68
2022/08/30 11:46:25;;;;;;;4.00;3.60;;;;;;;;;;5055043;28;20118;-69
2022/08/30 11:49:04;;;;;;;6.80;4.15;;;;;;;;;;5055490;28;20059;-68
2022/08/30 11:52:04;;;;;;;5.15;3.90;;;;;;;;;;5060770;28;20052;-66
2022/08/30 11:54:36;;;;;;;4.40;4.00;;;;;;;;;;5063132;28;20269;-66
2022/08/30 11:57:10;;;;;;;5.00;4.05;;;;;;;;;;5066381;28;20131;-67
2022/08/30 11:59:48;;;;;;;4.20;3.80;;;;;;;;;;5066103;28;20045;-67
2022/08/30 12:02:38;;;;;;;8.50;4.38;;;;;;;;;;5049525;28;20053;-67
2022/08/30 12:05:04;;;;;;;3.95;3.47;;;;;;;;;;5036135;28;20071;-67
2022/08/30 12:07:57;;;;;;;5.22;3.97;;;;;;;;;;5055111;28;20576;-67
2022/08/30 12:10:42;;;;;;;5.30;4.07;;;;;;;;;;5045288;28;20048;-67
2022/08/30 12:13:09;;;;;;;7.57;3.90;;;;;;;;;;5045923;28;20132;-67
2022/08/30 12:15:56;;;;;;;6.47;3.80;;;;;;;;;;5045628;28;20052;-67
2022/08/30 12:18:29;;;;;;;4.47;3.67;;;;;;;;;;5044376;28;20045;-67
2022/08/30 12:21:01;;;;;;;7.22;3.45;;;;;;;;;;5046691;28;20045;-67
2022/08/30 12:23:36;;;;;;;3.53;3.22;;;;;;;;;;5046099;28;20120;-67
2022/08/30 12:26:13;;;;;;;4.03;3.40;;;;;;;;;;5046744;28;20103;-67
2022/08/30 12:28:42;;;;;;;5.90;3.30;;;;;;;;;;5038801;28;20422;-67
2022/08/30 12:31:24;;;;;;;4.07;3.70;;;;;;;;;;5042375;28;20456;-67
2022/08/30 12:33:57;;;;;;;3.75;3.20;;;;;;;;;;5057878;28;20059;-67
2022/08/30 12:36:40;;;;;;;5.05;3.65;;;;;;;;;;5061338;28;20083;-67
2022/08/30 12:39:16;;;;;;;4.07;3.40;;;;;;;;;;5062559;28;20051;-66
2022/08/30 12:41:43;;;;;;;4.53;3.90;;;;;;;;;;5061399;28;20072;-66
2022/08/30 12:44:15;;;;;;;4.53;3.55;;;;;;;;;;5049885;28;20123;-67
2022/08/30 12:46:43;;;;;;;5.47;3.40;;;;;;;;;;5049628;28;20048;-66
2022/08/30 12:49:09;;;;;;;4.88;3.42;;;;;;;;;;5049762;28;20044;-67
2022/08/30 12:51:38;;;;;;;5.80;3.80;;;;;;;;;;5049719;28;20048;-67
2022/08/30 12:54:15;;;;;;;6.72;3.55;;;;;;;;;;5049844;28;20053;-67
2022/08/30 12:56:45;;;;;;;3.47;3.10;;;;;;;;;;5050574;28;20448;-67
2022/08/30 12:59:57;;;;;;;3.50;3.10;;;;;;;;;;5052211;28;20060;-67
2022/08/30 13:02:22;;;;;;;;;;;;;;;;;;5028345;28;20060;-67
2022/08/30 13:04:50;;;;;;;9.57;3.50;;;;;;;;;;5052089;28;19921;-67
2022/08/30 13:07:31;;;;;;;3.90;3.47;;;;;;;;;;5051554;28;20045;-67
2022/08/30 13:10:17;;;;;;;;;;;;;;;;;;5052229;28;20056;-66
2022/08/30 13:12:58;;;;;;;5.20;3.13;;;;;;;;;;5050625;28;20359;-67
2022/08/30 13:15:34;;;;;;;7.50;3.38;;;;;;;;;;5050272;28;20052;-66
2022/08/30 13:18:29;;;;;;;3.80;3.47;;;;;;;;;;5051378;28;20051;-67
2022/08/30 13:21:22;;;;;;;4.40;3.20;;;;;;;;;;5016745;28;20045;-67
2022/08/30 13:23:50;;;;;;;3.95;3.38;;;;;;;;;;5049517;28;20036;-67
2022/08/30 13:26:16;;;;;;;4.88;3.00;;;;;;;;;;5044816;28;20045;-68
2022/08/30 13:28:49;;;;;;;5.38;3.65;;;;;;;;;;5046048;28;20085;-67
2022/08/30 13:31:14;;;;;;;3.65;3.35;;;;;;;;;;5028474;28;20076;-67
2022/08/30 13:33:40;;;;;;;7.22;3.15;;;;;;;;;;5032928;28;20183;-68
2022/08/30 13:36:05;;;;;;;4.07;3.60;;;;;;;;;;5048215;28;20105;-67
2022/08/30 13:38:31;;;;;;;6.57;3.88;;;;;;;;;;5048313;28;20816;-67
2022/08/30 13:40:57;;;;;;;4.03;3.65;;;;;;;;;;5049028;28;20072;-67
2022/08/30 13:43:22;;;;;;;3.78;3.35;;;;;;;;;;5047943;28;20139;-67
2022/08/30 13:45:48;;;;;;;3.45;3.22;;;;;;;;;;5048237;28;20049;-66
2022/08/30 13:48:14;;;;;;;6.18;3.42;;;;;;;;;;5048902;28;20056;-66
2022/08/30 13:50:41;;;;;;;4.55;3.42;;;;;;;;;;5048704;28;20146;-66
2022/08/30 13:53:10;;;;;;;5.07;3.15;;;;;;;;;;5048102;28;20501;-66
2022/08/30 13:55:37;;;;;;;6.13;3.28;;;;;;;;;;5046898;28;20053;-67
2022/08/30 13:58:03;;;;;;;4.25;3.47;;;;;;;;;;5049191;28;20515;-67
2022/08/30 14:00:28;;;;;;;3.83;3.42;;;;;;;;;;5047408;28;20040;-66
2022/08/30 14:02:54;;;;;;;4.47;3.70;;;;;;;;;;5046922;28;20048;-66
2022/08/30 14:05:34;;;;;;;7.25;3.72;;;;;;;;;;5048625;28;20052;-66
2022/08/30 14:08:00;;;;;;;4.45;3.40;;;;;;;;;;5047950;28;20045;-66
2022/08/30 14:10:28;;;;;;;13.45;3.88;;;;;;;;;;5047452;28;20048;-67
2022/08/30 14:12:53;;;;;;;3.55;3.10;;;;;;;;;;5047778;28;20580;-66
2022/08/30 14:15:19;;;;;;;3.78;3.13;;;;;;;;;;5048576;28;20151;-67
2022/08/30 14:17:44;;;;;;;5.93;3.20;;;;;;;;;;5047755;28;20123;-67
2022/08/30 14:20:10;;;;;;;7.75;3.60;;;;;;;;;;5048587;28;20408;-66
2022/08/30 14:22:36;;;;;;;4.40;3.40;;;;;;;;;;5046847;28;20048;-66
2022/08/30 14:25:01;;;;;;;3.67;3.33;;;;;;;;;;5048283;28;20120;-65
2022/08/30 14:27:27;;;;;;;3.75;3.42;;;;;;;;;;5047824;28;20116;-68
2022/08/30 14:29:53;;;;;;;7.65;3.47;;;;;;;;;;5047051;28;20045;-68
2022/08/30 14:32:19;;;;;;;4.18;3.30;;;;;;;;;;5046159;28;20045;-67
2022/08/30 14:34:44;;;;;;;6.60;3.60;;;;;;;;;;5038821;28;20056;-65
2022/08/30 14:37:10;;;;;;;10.20;3.88;;;;;;;;;;5032780;28;20450;-66
2022/08/30 14:39:36;;;;;;;4.35;3.55;;;;;;;;;;5032186;28;20037;-67
2022/08/30 14:42:01;;;;;;;3.47;3.15;;;;;;;;;;5049088;28;20463;-67
2022/08/30 14:44:28;;;;;;;6.95;3.53;;;;;;;;;;5049022;28;20151;-66
2022/08/30 14:46:54;;;;;;;3.65;3.20;;;;;;;;;;5048731;28;20052;-66
2022/08/30 14:49:20;;;;;;;3.55;3.25;;;;;;;;;;5049782;28;20423;-67
2022/08/30 14:51:47;;;;;;;5.80;3.55;;;;;;;;;;5048189;28;20521;-66
2022/08/30 14:54:17;;;;;;;13.95;3.90;;;;;;;;;;5049024;28;20096;-70
2022/08/30 14:56:43;;;;;;;3.92;3.55;;;;;;;;;;5049347;28;20893;-66
2022/08/30 14:59:09;;;;;;;3.95;3.38;;;;;;;;;;5049894;28;20045;-66
2022/08/30 15:01:36;;;;;;;3.60;3.22;;;;;;;;;;5048063;28;20057;-66
2022/08/30 15:04:01;;;;;;;3.35;3.00;;;;;;;;;;5048809;28;20447;-66